createdAt,value
2022-12-23T00:00:06.545Z,32.83
2022-12-23T00:02:30.320Z,31.15
2022-12-23T00:04:52.792Z,30.02
2022-12-23T00:07:15.148Z,33.92
2022-12-23T00:09:37.603Z,33.33
2022-12-23T00:12:18.710Z,33.35
2022-12-23T00:14:59.457Z,33.83
2022-12-23T00:17:23.212Z,28.30
2022-12-23T00:19:45.866Z,32.85
2022-12-23T00:22:08.212Z,35.75
2022-12-23T00:24:30.560Z,31.67
2022-12-23T00:26:52.894Z,27.93
2022-12-23T00:29:15.233Z,33.45
2022-12-23T00:31:37.608Z,34.17
2022-12-23T00:34:00.094Z,31.57
2022-12-23T00:36:27.755Z,32.07
2022-12-23T00:39:08.938Z,25.60
2022-12-23T00:41:49.798Z,33.70
2022-12-23T00:44:12.226Z,31.40
2022-12-23T00:46:34.597Z,28.02
2022-12-23T00:49:15.530Z,30.53
2022-12-23T00:51:38.058Z,29.73
2022-12-23T00:54:01.085Z,28.80
2022-12-23T00:56:23.454Z,32.45
2022-12-23T00:58:45.860Z,34.67
2022-12-23T01:01:26.913Z,31.30
2022-12-23T01:04:07.974Z,29.27
2022-12-23T01:06:30.331Z,29.75
2022-12-23T01:08:52.674Z,25.80
2022-12-23T01:11:15.016Z,28.40
2022-12-23T01:13:37.655Z,31.90
2022-12-23T01:16:16.939Z,30.10
2022-12-23T01:18:40.980Z,31.67
2022-12-23T01:21:08.567Z,25.80
2022-12-23T01:23:31.114Z,28.50
2022-12-23T01:26:01.642Z,33.67
2022-12-23T01:28:24.008Z,28.05
2022-12-23T01:30:46.372Z,31.70
2022-12-23T01:33:08.708Z,26.03
2022-12-23T01:35:31.133Z,25.43
2022-12-23T01:37:53.466Z,25.58
2022-12-23T01:40:15.883Z,23.83
2022-12-23T01:42:44.471Z,24.10
2022-12-23T01:45:31.112Z,24.80
2022-12-23T01:48:03.803Z,25.08
2022-12-23T01:50:27.255Z,23.60
2022-12-23T01:53:08.604Z,27.63
2022-12-23T01:55:33.268Z,23.75
2022-12-23T01:57:56.975Z,22.10
2022-12-23T02:00:38.130Z,25.58
2022-12-23T02:03:19.202Z,29.25
2022-12-23T02:05:44.339Z,22.33
2022-12-23T02:08:25.318Z,25.83
2022-12-23T02:11:06.458Z,25.17
2022-12-23T02:14:17.513Z,26.42
2022-12-23T02:16:47.509Z,22.63
2022-12-23T02:19:23.402Z,31.23
2022-12-23T02:21:57.340Z,28.33
2022-12-23T02:24:47.142Z,23.75
2022-12-23T02:27:12.264Z,23.48
2022-12-23T02:29:49.565Z,24.05
2022-12-23T02:32:31.297Z,23.13
2022-12-23T02:35:05.040Z,28.73
2022-12-23T02:38:12.162Z,26.40
2022-12-23T02:40:57.715Z,25.00
2022-12-23T02:43:53.384Z,22.15
2022-12-23T02:46:22.766Z,25.52
2022-12-23T02:48:57.969Z,28.70
2022-12-23T02:51:21.897Z,27.77
2022-12-23T02:53:52.198Z,26.17
2022-12-23T02:56:15.214Z,28.08
2022-12-23T02:58:54.791Z,27.63
2022-12-23T03:01:17.200Z,25.25
2022-12-23T03:03:39.591Z,25.73
2022-12-23T03:06:02.516Z,24.07
2022-12-23T03:08:29.438Z,25.52
2022-12-23T03:11:04.813Z,26.33
2022-12-23T03:13:55.127Z,20.80
2022-12-23T03:16:35.269Z,21.85
2022-12-23T03:19:11.659Z,24.13
2022-12-23T03:22:08.489Z,25.20
2022-12-23T03:24:54.071Z,22.58
2022-12-23T03:27:27.092Z,24.10
2022-12-23T03:30:09.710Z,24.73
2022-12-23T03:33:05.857Z,30.88
2022-12-23T03:35:35.564Z,22.23
2022-12-23T03:37:57.910Z,23.58
2022-12-23T03:40:41.768Z,28.70
2022-12-23T03:45:47.448Z,26.15
2022-12-23T03:48:31.509Z,24.70
2022-12-23T03:50:57.391Z,24.42
2022-12-23T03:53:27.170Z,27.00
2022-12-23T03:55:54.370Z,20.50
2022-12-23T03:58:31.597Z,26.88
2022-12-23T04:01:18.497Z,27.27
2022-12-23T04:03:56.165Z,22.20
2022-12-23T04:06:18.587Z,21.48
2022-12-23T04:08:41.001Z,26.67
2022-12-23T04:11:03.532Z,23.42
2022-12-23T04:13:27.806Z,26.27
2022-12-23T04:15:50.174Z,26.40
2022-12-23T04:18:12.655Z,24.05
2022-12-23T04:20:35.053Z,23.90
2022-12-23T04:22:57.425Z,25.50
2022-12-23T04:25:19.949Z,25.83
2022-12-23T04:27:42.467Z,25.92
2022-12-23T04:30:06.400Z,25.95
2022-12-23T04:32:28.740Z,25.77
2022-12-23T04:34:51.099Z,21.93
2022-12-23T04:37:13.493Z,28.27
2022-12-23T04:39:35.842Z,29.20
2022-12-23T04:41:58.181Z,24.90
2022-12-23T04:44:20.553Z,26.75
2022-12-23T04:46:42.986Z,28.13
2022-12-23T04:49:05.427Z,31.93
2022-12-23T04:51:27.814Z,29.08
2022-12-23T04:53:50.253Z,29.65
2022-12-23T04:56:12.618Z,29.27
2022-12-23T04:58:34.979Z,36.47
2022-12-23T05:01:08.805Z,36.50
2022-12-23T05:03:31.332Z,35.00
2022-12-23T05:05:53.853Z,36.67
2022-12-23T05:08:16.210Z,33.50
2022-12-23T05:10:38.639Z,37.63
2022-12-23T05:13:01.011Z,31.83
2022-12-23T05:15:23.364Z,36.23
2022-12-23T05:17:45.712Z,37.20
2022-12-23T05:20:09.135Z,39.03
2022-12-23T05:22:31.507Z,40.83
2022-12-23T05:24:53.917Z,41.80
2022-12-23T05:27:16.328Z,39.33
2022-12-23T05:29:38.693Z,43.55
2022-12-23T05:32:01.155Z,47.90
2022-12-23T05:34:23.562Z,43.90
2022-12-23T05:36:45.901Z,48.00
2022-12-23T05:39:09.631Z,45.17
2022-12-23T05:41:32.033Z,47.92
2022-12-23T05:43:54.422Z,47.38
2022-12-23T05:46:19.915Z,46.07
2022-12-23T05:48:46.835Z,53.78
2022-12-23T05:51:09.218Z,56.35
2022-12-23T05:53:31.725Z,58.17
2022-12-23T05:55:54.106Z,52.08
2022-12-23T05:58:16.670Z,74.17
2022-12-23T06:00:39.148Z,73.57
2022-12-23T06:03:01.645Z,65.85
2022-12-23T06:05:24.065Z,68.15
2022-12-23T06:07:46.459Z,60.47
2022-12-23T06:10:10.036Z,56.83
2022-12-23T06:12:32.372Z,60.05
2022-12-23T06:14:54.736Z,71.60
2022-12-23T06:17:17.089Z,75.00
2022-12-23T06:19:39.455Z,67.28
2022-12-23T06:22:01.833Z,70.10
2022-12-23T06:24:24.163Z,64.20
2022-12-23T06:26:46.520Z,75.47
2022-12-23T06:29:08.858Z,63.00
2022-12-23T06:31:31.249Z,76.70
2022-12-23T06:33:53.598Z,57.97
2022-12-23T06:36:15.928Z,73.83
2022-12-23T06:38:18.200Z,97.00
2022-12-23T06:40:20.288Z,69.57
2022-12-23T06:42:23.673Z,95.13
2022-12-23T06:44:25.741Z,65.25
2022-12-23T06:46:46.364Z,70.10
2022-12-23T06:49:12.838Z,89.15
2022-12-23T06:51:36.007Z,82.57
2022-12-23T06:54:00.073Z,71.07
2022-12-23T06:56:22.463Z,84.60
2022-12-23T06:58:44.820Z,95.45
2022-12-23T07:01:07.208Z,74.80
2022-12-23T07:03:29.684Z,67.40
2022-12-23T07:05:52.467Z,85.28
2022-12-23T07:08:14.825Z,95.38
2022-12-23T07:10:37.186Z,80.30
2022-12-23T07:12:59.541Z,72.10
2022-12-23T07:15:21.910Z,68.47
2022-12-23T07:17:44.229Z,71.93
2022-12-23T07:20:07.779Z,66.13
2022-12-23T07:22:30.153Z,67.47
2022-12-23T07:24:52.577Z,67.55
2022-12-23T07:27:14.957Z,77.30
2022-12-23T07:29:37.288Z,70.23
2022-12-23T07:32:00.911Z,75.20
2022-12-23T07:34:23.317Z,73.78
2022-12-23T07:36:45.680Z,73.67
2022-12-23T07:39:08.114Z,70.70
2022-12-23T07:41:30.544Z,74.03
2022-12-23T07:43:52.882Z,72.35
2022-12-23T07:46:15.380Z,77.97
2022-12-23T07:48:37.849Z,69.40
2022-12-23T07:51:02.075Z,70.00
2022-12-23T07:53:24.455Z,67.20
2022-12-23T07:55:51.562Z,63.83
2022-12-23T07:58:17.001Z,62.03
2022-12-23T08:00:39.320Z,65.27
2022-12-23T08:03:01.783Z,61.35
2022-12-23T08:05:24.349Z,57.20
2022-12-23T08:07:46.712Z,62.75
2022-12-23T08:10:10.219Z,55.87
2022-12-23T08:12:32.868Z,58.78
2022-12-23T08:14:55.219Z,55.13
2022-12-23T08:17:17.659Z,54.03
2022-12-23T08:19:40.136Z,59.70
2022-12-23T08:22:02.498Z,53.03
2022-12-23T08:24:24.861Z,60.23
2022-12-23T08:26:47.214Z,63.20
2022-12-23T08:29:09.623Z,59.87
2022-12-23T08:31:32.187Z,63.33
2022-12-23T08:33:56.539Z,52.67
2022-12-23T08:36:27.383Z,48.20
2022-12-23T08:38:50.238Z,55.20
2022-12-23T08:41:17.953Z,51.53
2022-12-23T08:43:40.415Z,49.65
2022-12-23T08:46:03.081Z,52.42
2022-12-23T08:48:25.478Z,52.00
2022-12-23T08:50:47.850Z,50.43
2022-12-23T08:53:10.636Z,50.53
2022-12-23T08:55:46.738Z,47.72
2022-12-23T08:58:09.390Z,46.75
2022-12-23T09:00:31.723Z,49.45
2022-12-23T09:02:54.205Z,41.72
2022-12-23T09:05:16.711Z,41.78
2022-12-23T09:07:18.729Z,42.10
2022-12-23T09:09:20.798Z,41.42
2022-12-23T09:11:24.781Z,41.45
2022-12-23T09:13:34.850Z,38.40
2022-12-23T09:15:44.610Z,41.72
2022-12-23T09:17:46.837Z,44.40
2022-12-23T09:19:52.917Z,50.53
2022-12-23T09:21:55.829Z,45.58
2022-12-23T09:23:57.902Z,48.45
2022-12-23T09:26:00.906Z,39.40
2022-12-23T09:28:05.125Z,41.22
2022-12-23T09:30:08.579Z,43.45
2022-12-23T09:32:11.482Z,40.58
2022-12-23T09:34:14.169Z,37.45
2022-12-23T09:36:17.189Z,39.10
2022-12-23T09:40:21.999Z,36.53
2022-12-23T09:43:14.808Z,35.95
2022-12-23T09:45:26.764Z,38.80
2022-12-23T09:47:30.231Z,41.58
2022-12-23T09:49:32.751Z,43.22
2022-12-23T09:51:37.080Z,42.60
2022-12-23T09:54:04.139Z,41.63
2022-12-23T09:56:23.911Z,40.25
2022-12-23T09:59:08.115Z,37.97
2022-12-23T10:01:44.767Z,35.25
2022-12-23T10:04:23.476Z,40.45
2022-12-23T10:06:47.321Z,41.72
2022-12-23T10:09:09.839Z,43.17
2022-12-23T10:11:38.174Z,46.50
2022-12-23T10:14:22.321Z,44.80
2022-12-23T10:16:47.205Z,48.70
2022-12-23T10:19:29.860Z,49.78
2022-12-23T10:21:55.023Z,48.95
2022-12-23T10:24:36.732Z,47.60
2022-12-23T10:27:31.804Z,48.95
2022-12-23T10:29:54.171Z,43.17
2022-12-23T10:32:59.767Z,42.03
2022-12-23T10:36:06.882Z,47.15
2022-12-23T10:39:06.060Z,42.22
2022-12-23T10:41:51.100Z,46.70
2022-12-23T10:44:49.742Z,46.25
2022-12-23T10:47:14.731Z,41.47
2022-12-23T10:50:19.502Z,41.40
2022-12-23T10:52:42.924Z,43.72
2022-12-23T10:55:05.800Z,42.10
2022-12-23T10:57:28.160Z,46.20
2022-12-23T10:59:50.597Z,49.40
2022-12-23T11:02:13.094Z,46.55
2022-12-23T11:04:37.316Z,50.80
2022-12-23T11:07:26.203Z,42.25
2022-12-23T11:09:48.418Z,44.00
2022-12-23T11:12:12.027Z,46.05
2022-12-23T11:14:40.248Z,40.92
2022-12-23T11:17:04.527Z,41.33
2022-12-23T11:21:59.730Z,35.45
2022-12-23T11:24:22.935Z,39.83
2022-12-23T11:27:06.941Z,51.45
2022-12-23T11:29:35.364Z,39.33
2022-12-23T11:31:57.829Z,37.45
2022-12-23T11:34:21.910Z,34.95
2022-12-23T11:36:44.365Z,32.92
2022-12-23T11:39:21.986Z,32.50
2022-12-23T11:41:48.322Z,34.58
2022-12-23T11:44:36.456Z,27.85
2022-12-23T11:47:17.502Z,32.80
2022-12-23T11:49:46.836Z,33.67
2022-12-23T11:52:09.146Z,35.90
2022-12-23T11:54:32.271Z,30.77
2022-12-23T11:56:54.800Z,37.08
2022-12-23T11:59:39.620Z,31.42
2022-12-23T12:02:26.926Z,33.80
2022-12-23T12:04:59.301Z,36.53
2022-12-23T12:07:21.683Z,36.95
2022-12-23T12:09:47.068Z,30.87
2022-12-23T12:12:19.458Z,33.78
2022-12-23T12:14:48.272Z,35.83
2022-12-23T12:17:40.483Z,33.22
2022-12-23T12:20:33.326Z,32.42
2022-12-23T12:22:58.854Z,35.30
2022-12-23T12:25:23.195Z,34.45
2022-12-23T12:28:00.297Z,36.28
2022-12-23T12:30:23.059Z,30.60
2022-12-23T12:33:00.920Z,30.80
2022-12-23T12:35:53.654Z,34.15
2022-12-23T12:38:32.560Z,33.25
2022-12-23T12:41:22.481Z,33.72
2022-12-23T12:43:56.425Z,33.35
2022-12-23T12:46:34.735Z,33.88
2022-12-23T12:49:10.874Z,32.67
2022-12-23T12:51:54.432Z,36.10
2022-12-23T12:54:27.738Z,39.10
2022-12-23T12:56:57.552Z,40.55
2022-12-23T12:59:28.645Z,35.90
2022-12-23T13:02:25.012Z,39.95
2022-12-23T13:05:14.907Z,36.10
2022-12-23T13:07:46.359Z,40.92
2022-12-23T13:11:10.338Z,39.08
2022-12-23T13:13:39.735Z,35.92
2022-12-23T13:16:07.740Z,35.05
2022-12-23T13:19:14.503Z,38.75
2022-12-23T13:22:09.654Z,36.50
2022-12-23T13:24:49.812Z,33.65
2022-12-23T13:27:39.618Z,34.35
2022-12-23T13:30:18.038Z,35.90
2022-12-23T13:33:10.861Z,33.67
2022-12-23T13:35:50.992Z,37.88
2022-12-23T13:38:39.303Z,33.05
2022-12-23T13:41:20.572Z,36.88
2022-12-23T13:43:46.677Z,40.38
2022-12-23T13:46:18.155Z,41.58
2022-12-23T13:48:55.289Z,39.53
2022-12-23T13:51:37.659Z,39.38
2022-12-23T13:54:20.868Z,45.30
2022-12-23T13:57:08.534Z,42.60
2022-12-23T13:59:42.809Z,41.33
2022-12-23T14:02:37.231Z,41.90
2022-12-23T14:05:00.067Z,41.28
2022-12-23T14:07:22.575Z,40.75
2022-12-23T14:09:44.937Z,49.60
2022-12-23T14:12:28.514Z,43.27
2022-12-23T14:15:25.415Z,45.95
2022-12-23T14:18:27.743Z,46.05
2022-12-23T14:20:52.091Z,47.35
2022-12-23T14:23:24.437Z,42.28
2022-12-23T14:25:32.649Z,43.40
2022-12-23T14:27:55.995Z,40.70
2022-12-23T14:30:17.449Z,44.92
2022-12-23T14:32:34.471Z,51.45
2022-12-23T14:34:39.302Z,45.70
2022-12-23T14:36:42.389Z,46.20
2022-12-23T14:39:12.251Z,50.38
2022-12-23T14:41:48.016Z,38.47
2022-12-23T14:43:55.891Z,42.72
2022-12-23T14:46:05.028Z,46.47
2022-12-23T14:48:44.623Z,40.58
2022-12-23T14:51:10.362Z,45.70
2022-12-23T14:53:26.939Z,46.75
2022-12-23T14:55:32.606Z,43.60
2022-12-23T14:57:35.183Z,46.95
2022-12-23T15:00:02.406Z,41.80
2022-12-23T15:02:29.026Z,49.13
2022-12-23T15:04:50.983Z,48.30
2022-12-23T15:06:54.231Z,48.63
2022-12-23T15:08:56.913Z,47.75
2022-12-23T15:11:00.062Z,48.83
2022-12-23T15:13:03.221Z,46.42
2022-12-23T15:17:34.996Z,48.58
2022-12-23T15:19:37.350Z,53.97
2022-12-23T15:21:40.064Z,48.95
2022-12-23T15:23:50.603Z,48.58
2022-12-23T15:26:11.184Z,47.08
2022-12-23T15:28:38.736Z,45.63
2022-12-23T15:31:02.071Z,45.97
2022-12-23T15:34:01.627Z,53.60
2022-12-23T15:36:09.882Z,57.30
2022-12-23T15:38:36.185Z,51.30
2022-12-23T15:41:13.861Z,54.88
2022-12-23T15:43:41.478Z,61.53
2022-12-23T15:46:31.604Z,50.88
2022-12-23T15:48:54.014Z,46.72
2022-12-23T15:52:05.177Z,50.87
2022-12-23T15:54:30.900Z,55.72
2022-12-23T15:56:53.946Z,53.63
2022-12-23T15:59:24.108Z,49.15
2022-12-23T16:01:46.560Z,55.67
2022-12-23T16:04:09.140Z,64.72
2022-12-23T16:06:33.955Z,56.25
2022-12-23T16:09:03.180Z,52.85
2022-12-23T16:11:59.297Z,58.30
2022-12-23T16:14:34.890Z,51.90
2022-12-23T16:17:09.499Z,57.00
2022-12-23T16:20:24.268Z,57.33
2022-12-23T16:22:49.185Z,61.50
2022-12-23T16:25:17.856Z,54.17
2022-12-23T16:27:47.859Z,55.30
2022-12-23T16:30:10.698Z,64.25
2022-12-23T16:32:33.098Z,60.45
2022-12-23T16:34:55.524Z,60.07
2022-12-23T16:37:17.942Z,59.40
2022-12-23T16:39:41.221Z,61.30
2022-12-23T16:42:04.495Z,59.92
2022-12-23T16:44:26.835Z,65.95
2022-12-23T16:46:49.853Z,59.43
2022-12-23T16:49:19.098Z,63.22
2022-12-23T16:51:41.553Z,63.75
2022-12-23T16:54:04.066Z,67.68
2022-12-23T16:56:35.958Z,68.70
2022-12-23T16:58:58.325Z,60.97
2022-12-23T17:01:30.033Z,68.67
2022-12-23T17:03:52.607Z,64.57
2022-12-23T17:06:15.494Z,64.90
2022-12-23T17:08:37.840Z,67.40
2022-12-23T17:11:00.222Z,63.80
2022-12-23T17:13:22.588Z,69.60
2022-12-23T17:15:45.167Z,75.45
2022-12-23T17:18:16.647Z,65.75
2022-12-23T17:20:39.052Z,66.30
2022-12-23T17:23:01.412Z,66.45
2022-12-23T17:25:26.744Z,62.10
2022-12-23T17:27:50.230Z,67.80
2022-12-23T17:30:19.508Z,58.13
2022-12-23T17:32:42.057Z,63.10
2022-12-23T17:35:04.826Z,58.13
2022-12-23T17:37:28.435Z,61.53
2022-12-23T17:39:50.923Z,62.83
2022-12-23T17:42:25.761Z,61.08
2022-12-23T17:44:48.791Z,62.05
2022-12-23T17:47:17.733Z,61.25
2022-12-23T17:49:40.098Z,60.65
2022-12-23T17:52:03.447Z,59.33
2022-12-23T17:56:48.089Z,68.90
2022-12-23T17:59:10.755Z,61.10
2022-12-23T18:01:33.165Z,70.47
2022-12-23T18:03:56.672Z,65.03
2022-12-23T18:06:21.064Z,64.43
2022-12-23T18:08:43.501Z,70.88
2022-12-23T18:11:06.435Z,70.20
2022-12-23T18:13:28.796Z,69.22
2022-12-23T18:15:51.223Z,77.00
2022-12-23T18:18:28.552Z,65.05
2022-12-23T18:20:55.096Z,60.28
2022-12-23T18:23:29.288Z,67.43
2022-12-23T18:25:51.783Z,64.78
2022-12-23T18:28:14.139Z,66.78
2022-12-23T18:30:36.536Z,63.13
2022-12-23T18:32:58.922Z,59.15
2022-12-23T18:35:31.078Z,64.17
2022-12-23T18:37:53.643Z,67.63
2022-12-23T18:40:16.106Z,65.20
2022-12-23T18:42:38.486Z,67.00
2022-12-23T18:45:00.828Z,63.27
2022-12-23T18:47:23.192Z,67.18
2022-12-23T18:49:45.567Z,64.50
2022-12-23T18:52:12.455Z,64.67
2022-12-23T18:54:35.253Z,66.95
2022-12-23T18:57:01.231Z,60.60
2022-12-23T18:59:29.566Z,62.95
2022-12-23T19:01:52.570Z,64.03
2022-12-23T19:04:15.017Z,68.03
2022-12-23T19:06:38.840Z,63.83
2022-12-23T19:09:01.343Z,62.33
2022-12-23T19:11:23.738Z,57.30
2022-12-23T19:13:46.236Z,62.45
2022-12-23T19:16:11.657Z,62.53
2022-12-23T19:18:34.032Z,72.43
2022-12-23T19:20:56.405Z,70.10
2022-12-23T19:23:18.835Z,81.17
2022-12-23T19:25:43.492Z,68.15
2022-12-23T19:28:07.711Z,69.35
2022-12-23T19:30:30.366Z,70.05
2022-12-23T19:32:54.043Z,66.45
2022-12-23T19:35:16.473Z,72.75
2022-12-23T19:37:38.841Z,63.47
2022-12-23T19:40:01.198Z,66.22
2022-12-23T19:42:03.386Z,64.80
2022-12-23T19:44:05.491Z,59.38
2022-12-23T19:46:09.256Z,61.15
2022-12-23T19:48:11.420Z,64.30
2022-12-23T19:50:13.510Z,68.25
2022-12-23T19:52:15.638Z,57.53
2022-12-23T19:54:18.404Z,63.53
2022-12-23T19:56:25.120Z,62.70
2022-12-23T19:58:28.151Z,66.15
2022-12-23T20:00:30.194Z,62.35
2022-12-23T20:02:32.324Z,65.15
2022-12-23T20:04:35.218Z,60.28
2022-12-23T20:06:38.617Z,63.08
2022-12-23T20:08:41.097Z,63.47
2022-12-23T20:10:44.918Z,65.15
2022-12-23T20:12:47.718Z,65.43
2022-12-23T20:14:49.850Z,74.50
2022-12-23T20:16:52.861Z,66.85
2022-12-23T20:18:55.372Z,67.32
2022-12-23T20:20:59.638Z,69.30
2022-12-23T20:23:01.904Z,68.13
2022-12-23T20:25:04.816Z,71.03
2022-12-23T20:27:11.326Z,67.22
2022-12-23T20:29:13.801Z,70.72
2022-12-23T20:31:37.537Z,61.83
2022-12-23T20:33:39.988Z,68.55
2022-12-23T20:35:42.195Z,62.80
2022-12-23T20:37:45.293Z,82.07
2022-12-23T20:39:48.305Z,71.18
2022-12-23T20:44:31.845Z,78.40
2022-12-23T20:46:17.835Z,67.65
2022-12-23T20:48:21.807Z,68.22
2022-12-23T20:50:24.548Z,76.32
2022-12-23T20:52:27.384Z,67.65
2022-12-23T20:54:33.662Z,69.40
2022-12-23T20:56:37.133Z,75.47
2022-12-23T20:58:55.071Z,70.45
2022-12-23T21:01:07.632Z,71.10
2022-12-23T21:03:10.753Z,71.65
2022-12-23T21:05:12.983Z,78.28
2022-12-23T21:07:15.843Z,71.60
2022-12-23T21:09:18.549Z,82.07
2022-12-23T21:11:22.338Z,73.60
2022-12-23T21:13:25.161Z,68.45
2022-12-23T21:15:27.474Z,68.28
2022-12-23T21:17:31.271Z,68.03
2022-12-23T21:19:34.975Z,67.13
2022-12-23T21:21:37.126Z,71.50
2022-12-23T21:23:40.817Z,65.22
2022-12-23T21:25:42.902Z,63.40
2022-12-23T21:27:45.016Z,63.10
2022-12-23T21:29:47.091Z,64.50
2022-12-23T21:31:49.225Z,73.28
2022-12-23T21:33:51.477Z,63.08
2022-12-23T21:35:54.274Z,67.78
2022-12-23T21:37:56.396Z,76.85
2022-12-23T21:39:58.492Z,76.68
2022-12-23T21:42:00.586Z,75.25
2022-12-23T21:44:02.858Z,65.05
2022-12-23T21:46:08.216Z,74.25
2022-12-23T21:48:10.428Z,74.03
2022-12-23T21:50:12.584Z,80.85
2022-12-23T21:52:14.767Z,81.88
2022-12-23T21:54:16.842Z,82.35
2022-12-23T21:56:25.071Z,100.65
2022-12-23T21:58:27.089Z,93.78
2022-12-23T22:00:29.118Z,95.75
2022-12-23T22:02:31.365Z,89.70
2022-12-23T22:04:33.459Z,95.80
2022-12-23T22:06:38.284Z,97.20
2022-12-23T22:08:40.491Z,95.68
2022-12-23T22:10:42.533Z,97.20
2022-12-23T22:12:44.576Z,84.15
2022-12-23T22:14:46.619Z,83.70
2022-12-23T22:16:48.710Z,87.55
2022-12-23T22:18:51.234Z,85.63
2022-12-23T22:20:53.295Z,80.38
2022-12-23T22:22:55.402Z,77.18
2022-12-23T22:24:57.475Z,78.88
2022-12-23T22:26:59.535Z,73.82
2022-12-23T22:29:04.879Z,73.13
2022-12-23T22:31:21.008Z,68.15
2022-12-23T22:33:23.098Z,59.28
2022-12-23T22:35:27.940Z,61.55
2022-12-23T22:37:29.946Z,62.80
2022-12-23T22:39:31.949Z,55.35
2022-12-23T22:41:34.495Z,54.58
2022-12-23T22:43:37.075Z,54.47
2022-12-23T22:45:39.157Z,53.92
2022-12-23T22:47:41.317Z,45.60
2022-12-23T22:49:43.370Z,48.28
2022-12-23T22:51:45.696Z,46.15
2022-12-23T22:53:48.127Z,49.42
2022-12-23T22:55:58.334Z,42.78
2022-12-23T22:58:00.361Z,47.33
2022-12-23T23:00:07.808Z,51.53
2022-12-23T23:02:13.828Z,48.30
2022-12-23T23:04:16.674Z,50.30
2022-12-23T23:06:18.919Z,50.40
2022-12-23T23:08:21.025Z,49.80
2022-12-23T23:10:23.386Z,48.22
2022-12-23T23:14:48.897Z,51.60
2022-12-23T23:16:51.921Z,48.65
2022-12-23T23:18:55.055Z,45.88
2022-12-23T23:20:57.574Z,49.53
2022-12-23T23:23:00.057Z,51.58
2022-12-23T23:25:02.918Z,46.63
2022-12-23T23:29:09.543Z,54.65
2022-12-23T23:33:34.451Z,53.33
2022-12-23T23:35:36.990Z,56.33
2022-12-23T23:37:39.361Z,58.55
2022-12-23T23:39:42.180Z,50.78
2022-12-23T23:43:47.312Z,58.65
2022-12-23T23:45:50.214Z,53.15
2022-12-23T23:47:52.649Z,57.92
2022-12-23T23:49:55.338Z,56.97
2022-12-23T23:51:57.930Z,58.40
2022-12-23T23:54:00.441Z,58.33
2022-12-23T23:56:05.379Z,63.78
2022-12-23T23:58:08.276Z,62.15
